Time;durP1;ratioP1;P1;durP2;ratioP2;P2;SDS_P1;SDS_P2;PMS_P1;PMS_P2;Temp;Humidity;BMP_temperature;BMP_pressure;BME280_temperature;BME280_humidity;BME280_pressure;Samples;Min_cycle;Max_cycle;Signal;HPM_P1;HPM_P2
2023/12/30 00:01:53;;;;;;;;;;;;;;;4.92;100.00;100390.00;4938690;29;19922;-79
2023/12/30 00:04:18;;;;;;;;;;;;;;;4.96;100.00;100394.00;4939532;29;19930;-79
2023/12/30 00:06:44;;;;;;;;;;;;;;;4.93;100.00;100397.84;4940448;29;19923;-79
2023/12/30 00:09:09;;;;;;;;;;;;;;;4.87;100.00;100393.19;4941468;29;19929;-79
2023/12/30 00:11:34;;;;;;;;;;;;;;;4.86;100.00;100381.69;4954205;29;19930;-78
2023/12/30 00:13:59;;;;;;;;;;;;;;;4.82;100.00;100400.88;4942703;29;19923;-79
2023/12/30 00:16:26;;;;;;;;;;;;;;;4.76;100.00;100396.22;4956297;29;19954;-78
2023/12/30 00:18:51;;;;;;;;;;;;;;;4.68;100.00;100405.91;4943132;29;19921;-79
2023/12/30 00:21:20;;;;;;;;;;;;;;;4.63;100.00;100410.91;4959954;28;19927;-78
2023/12/30 00:23:45;;;;;;;;;;;;;;;4.53;100.00;100405.75;4953001;29;19918;-78
2023/12/30 00:26:23;;;;;;;;;;;;;;;4.39;100.00;100407.28;4941009;29;20005;-78
2023/12/30 00:28:49;;;;;;;;;;;;;;;4.40;100.00;100413.41;4937047;29;19919;-78
2023/12/30 00:31:23;;;;;;;;;;;;;;;4.36;100.00;100420.94;4937096;29;19941;-78
2023/12/30 00:33:49;;;;;;;;;;;;;;;4.29;100.00;100422.56;4936833;29;19930;-78
2023/12/30 00:36:14;;;;;;;;;;;;;;;4.17;100.00;100422.06;4936764;29;19923;-78
2023/12/30 00:38:39;;;;;;;;;;;;;;;4.19;100.00;100427.25;4936475;29;19926;-78
2023/12/30 00:41:05;;;;;;;;;;;;;;;4.08;100.00;100436.41;4935045;29;20041;-78
2023/12/30 00:43:31;;;;;;;;;;;;;;;4.02;100.00;100437.88;4935039;29;19923;-78
2023/12/30 00:45:57;;;;;;;;;;;;;;;3.96;100.00;100438.53;4940979;29;19933;-76
2023/12/30 00:48:22;;;;;;;;;;;;;;;3.93;100.00;100438.84;4958494;28;19923;-76
2023/12/30 00:50:48;;;;;;;;;;;;;;;3.95;100.00;100450.19;4956970;29;19934;-77
2023/12/30 00:53:14;;;;;;;;;;;;;;;3.89;100.00;100448.16;4955791;29;19994;-77
2023/12/30 00:55:39;;;;;;;;;;;;;;;3.85;100.00;100447.66;4953265;29;19978;-77
2023/12/30 00:58:04;;;;;;;;;;;;;;;3.83;100.00;100449.66;4937874;29;19919;-78
2023/12/30 01:00:29;;;;;;;;;;;;;;;3.88;100.00;100446.53;4938130;29;19926;-77
2023/12/30 01:02:54;;;;;;;;;;;;;;;3.94;100.00;100451.19;4939428;29;19922;-75
2023/12/30 01:05:20;;;;;;;;;;;;;;;3.91;100.00;100451.50;4942386;29;19969;-77
2023/12/30 01:07:45;;;;;;;;;;;;;;;3.91;100.00;100447.03;4940270;29;19923;-77
2023/12/30 01:10:11;;;;;;;;;;;;;;;3.89;100.00;100453.50;4939701;29;19926;-77
2023/12/30 01:12:36;;;;;;;;;;;;;;;3.92;100.00;100459.34;4937553;29;20375;-77
2023/12/30 01:15:01;;;;;;;;;;;;;;;3.92;100.00;100469.16;4933143;29;19958;-77
2023/12/30 01:17:27;;;;;;;;;;;;;;;3.87;100.00;100455.50;4957297;29;19925;-77
2023/12/30 01:19:55;;;;;;;;;;;;;;;3.87;100.00;100460.84;4957799;29;19947;-78
2023/12/30 01:22:20;;;;;;;;;;;;;;;3.83;100.00;100467.47;4957104;29;19922;-77
2023/12/30 01:24:46;;;;;;;;;;;;;;;3.84;100.00;100472.63;4977319;29;19927;-77
2023/12/30 01:27:11;;;;;;;;;;;;;;;3.86;100.00;100475.13;4954430;29;20005;-78
2023/12/30 01:29:36;;;;;;;;;;;;;;;3.90;100.00;100487.97;4942227;29;19934;-77
2023/12/30 01:32:01;;;;;;;;;;;;;;;3.87;100.00;100492.78;4943315;29;19925;-77
2023/12/30 01:34:26;;;;;;;;;;;;;;;3.86;100.00;100501.78;4938612;29;19919;-77
2023/12/30 01:36:54;;;;;;;;;;;;;;;3.85;100.00;100497.44;4937682;29;19923;-76
2023/12/30 01:39:19;;;;;;;;;;;;;;;3.83;100.00;100502.09;4942440;29;20513;-77
2023/12/30 01:41:49;;;;;;;;;;;;;;;3.82;100.00;100487.09;4942884;29;19966;-78
2023/12/30 01:44:14;;;;;;;;;;;;;;;3.78;100.00;100487.41;4944659;29;19955;-77
2023/12/30 01:46:39;;;;;;;;;;;;;;;3.77;100.00;100488.41;4948197;29;19923;-77
2023/12/30 01:49:05;;;;;;;;;;;;;;;3.81;100.00;100490.75;4961167;28;19927;-75
2023/12/30 01:51:31;;;;;;;;;;;;;;;3.79;100.00;100491.75;4977600;28;19915;-75
2023/12/30 01:53:59;;;;;;;;;;;;;;;3.79;100.00;100496.25;4960282;29;19915;-75
2023/12/30 01:56:24;;;;;;;;;;;;;;;3.75;100.00;100500.22;4942772;29;19957;-76
2023/12/30 01:58:50;;;;;;;;;;;;;;;3.75;100.00;100495.72;4950619;29;19919;-77
2023/12/30 02:01:15;;;;;;;;;;;;;;;3.73;100.00;100492.38;4947944;29;19930;-76
2023/12/30 02:03:47;;;;;;;;;;;;;;;3.70;100.00;100491.88;4946979;29;20330;-76
2023/12/30 02:06:12;;;;;;;;;;;;;;;3.75;100.00;100500.22;4927613;29;19982;-77
2023/12/30 02:08:50;;;;;;;;;;;;;;;3.78;100.00;100510.56;4939960;29;19926;-78
2023/12/30 02:11:24;;;;;;;;;;;;;;;3.73;100.00;100508.34;4942815;29;20347;-77
2023/12/30 02:14:01;;;;;;;;;;;;;;;3.76;100.00;100512.56;4928477;29;19922;-77
2023/12/30 02:16:32;;;;;;;;;;;;;;;3.75;100.00;100514.38;4939657;29;20381;-77
2023/12/30 02:18:57;;;;;;;;;;;;;;;3.79;100.00;100513.06;4937365;29;19926;-78
2023/12/30 02:21:22;;;;;;;;;;;;;;;3.83;100.00;100512.75;4937414;29;19926;-77
2023/12/30 02:23:52;;;;;;;;;;;;;;;3.83;100.00;100523.38;4938552;29;20010;-77
2023/12/30 02:26:17;;;;;;;;;;;;;;;3.86;100.00;100523.88;4936532;29;19969;-77
2023/12/30 02:28:42;;;;;;;;;;;;;;;3.86;100.00;100520.41;4937080;29;20318;-77
2023/12/30 02:31:07;;;;;;;;;;;;;;;3.87;100.00;100520.22;4938364;29;19930;-77
2023/12/30 02:33:33;;;;;;;;;;;;;;;3.92;100.00;100519.75;4936971;29;19926;-77
2023/12/30 02:35:58;;;;;;;;;;;;;;;3.87;100.00;100522.09;4937439;29;19934;-77
2023/12/30 02:38:23;;;;;;;;;;;;;;;3.93;100.00;100519.59;4938310;29;19922;-77
2023/12/30 02:40:49;;;;;;;;;;;;;;;3.96;100.00;100521.09;4935641;29;19929;-76
2023/12/30 02:43:14;;;;;;;;;;;;;;;4.03;100.00;100530.13;4937247;29;19923;-76
2023/12/30 02:45:39;;;;;;;;;;;;;;;4.03;100.00;100534.59;4934029;29;19929;-77
2023/12/30 02:48:05;;;;;;;;;;;;;;;4.02;100.00;100528.44;4936448;29;20009;-76
2023/12/30 02:50:30;;;;;;;;;;;;;;;4.02;100.00;100525.78;4936195;29;19922;-77
2023/12/30 02:52:55;;;;;;;;;;;;;;;4.05;100.00;100538.78;4937649;29;20438;-76
2023/12/30 02:55:20;;;;;;;;;;;;;;;4.03;100.00;100534.59;4936545;29;20344;-76
2023/12/30 02:57:45;;;;;;;;;;;;;;;4.10;100.00;100538.28;4936845;29;20394;-76
2023/12/30 03:00:11;;;;;;;;;;;;;;;4.12;100.00;100546.09;4937932;29;20291;-76
2023/12/30 03:02:37;;;;;;;;;;;;;;;4.13;100.00;100542.44;4936178;29;20299;-76
2023/12/30 03:05:03;;;;;;;;;;;;;;;4.16;100.00;100544.78;4936679;29;20448;-77
2023/12/30 03:07:28;;;;;;;;;;;;;;;4.10;100.00;100547.09;4937320;29;19918;-77
2023/12/30 03:09:53;;;;;;;;;;;;;;;4.13;100.00;100545.13;4936495;29;19931;-76
2023/12/30 03:12:18;;;;;;;;;;;;;;;4.24;100.00;100547.47;4936557;29;20375;-77
2023/12/30 03:14:43;;;;;;;;;;;;;;;4.25;100.00;100538.47;4937088;29;20407;-77
2023/12/30 03:17:09;;;;;;;;;;;;;;;4.27;100.00;100543.66;4936581;29;19986;-76
2023/12/30 03:19:36;;;;;;;;;;;;;;;4.31;100.00;100551.16;4936781;29;19959;-76
2023/12/30 03:22:01;;;;;;;;;;;;;;;4.32;100.00;100550.16;4937800;29;20033;-77
2023/12/30 03:24:26;;;;;;;;;;;;;;;4.28;100.00;100554.16;4936145;29;19954;-76
2023/12/30 03:26:53;;;;;;;;;;;;;;;4.24;100.00;100558.13;4937795;29;19923;-76
2023/12/30 03:29:18;;;;;;;;;;;;;;;4.24;100.00;100553.66;4937433;29;19919;-77
2023/12/30 03:31:43;;;;;;;;;;;;;;;4.19;100.00;100563.94;4936690;29;20378;-76
2023/12/30 03:34:08;;;;;;;;;;;;;;;4.19;100.00;100560.47;4936775;29;20391;-76
2023/12/30 03:36:35;;;;;;;;;;;;;;;4.24;100.00;100563.44;4935888;29;20349;-78
2023/12/30 03:39:00;;;;;;;;;;;;;;;4.21;100.00;100561.13;4936473;29;19931;-78
2023/12/30 03:41:25;;;;;;;;;;;;;;;4.24;100.00;100569.63;4936283;29;20338;-78
2023/12/30 03:43:50;;;;;;;;;;;;;;;4.22;100.00;100568.13;4935983;29;20302;-77
2023/12/30 03:46:16;;;;;;;;;;;;;;;4.24;100.00;100574.13;4937761;29;19970;-77
2023/12/30 03:48:41;;;;;;;;;;;;;;;4.27;100.00;100571.13;4925609;29;19930;-77
2023/12/30 03:51:06;;;;;;;;;;;;;;;4.30;100.00;100573.47;4936436;29;19923;-77
2023/12/30 03:53:32;;;;;;;;;;;;;;;4.25;100.00;100567.78;4937841;29;19923;-77
2023/12/30 03:55:57;;;;;;;;;;;;;;;4.20;100.00;100572.78;4937303;29;19923;-78
2023/12/30 03:58:22;;;;;;;;;;;;;;;4.19;100.00;100563.94;4936250;29;19942;-78
2023/12/30 04:00:48;;;;;;;;;;;;;;;4.19;100.00;100571.94;4937319;29;19942;-77
2023/12/30 04:03:13;;;;;;;;;;;;;;;4.12;100.00;100568.28;4936455;29;19927;-78
2023/12/30 04:05:38;;;;;;;;;;;;;;;4.08;100.00;100575.72;4936308;29;20015;-78
2023/12/30 04:08:03;;;;;;;;;;;;;;;4.14;100.00;100579.59;4938363;29;19923;-77
2023/12/30 04:10:29;;;;;;;;;;;;;;;4.08;100.00;100572.25;4937169;29;19930;-77
2023/12/30 04:12:55;;;;;;;;;;;;;;;4.15;100.00;100575.91;4937249;29;19926;-77
2023/12/30 04:15:21;;;;;;;;;;;;;;;4.19;100.00;100565.78;4940135;29;19942;-77
2023/12/30 04:17:46;;;;;;;;;;;;;;;4.22;100.00;100571.63;4944782;29;19923;-77
2023/12/30 04:20:11;;;;;;;;;;;;;;;4.25;100.00;100573.97;4959075;28;19911;-77
2023/12/30 04:22:37;;;;;;;;;;;;;;;4.31;100.00;100571.66;4958992;28;19919;-77
2023/12/30 04:25:02;;;;;;;;;;;;;;;4.27;100.00;100572.97;4947633;29;19930;-77
2023/12/30 04:27:28;;;;;;;;;;;;;;;4.17;100.00;100578.44;4935514;29;19929;-77
2023/12/30 04:29:53;;;;;;;;;;;;;;;4.16;100.00;100572.25;4936562;29;19965;-77
2023/12/30 04:32:47;;;;;;;;;;;;;;;4.17;100.00;100583.75;5069148;23;19934;-77
2023/12/30 04:35:28;;;;;;;;;;;;;;;4.13;100.00;100590.41;4918742;29;19965;-77
2023/12/30 04:38:15;;;;;;;;;;;;;;;4.11;100.00;100595.91;4908042;29;19930;-77
2023/12/30 04:40:40;;;;;;;;;;;;;;;4.13;100.00;100598.41;4915283;29;19962;-77
2023/12/30 04:43:39;;;;;;;;;;;;;;;4.14;100.00;100597.41;4916548;29;20712;-77
2023/12/30 04:46:17;;;;;;;;;;;;;;;4.13;100.00;100601.06;4932205;28;19927;-77
2023/12/30 04:48:45;;;;;;;;;;;;;;;4.07;100.00;100599.88;4906057;29;20399;-78
2023/12/30 04:54:33;;;;;;;;;;;;;;;4.04;100.00;100594.88;4917586;29;19956;-78
2023/12/30 04:56:58;;;;;;;;;;;;;;;4.01;100.00;100593.38;4915099;29;19974;-77
2023/12/30 04:59:24;;;;;;;;;;;;;;;4.00;100.00;100599.69;4915549;29;19923;-77
2023/12/30 05:02:16;;;;;;;;;;;;;;;3.96;100.00;100603.66;4913533;29;19923;-78
2023/12/30 05:04:51;;;;;;;;;;;;;;;3.98;100.00;100603.50;4909292;29;20026;-78
2023/12/30 05:07:35;;;;;;;;;;;;;;;4.04;100.00;100606.38;4917547;29;20059;-77
2023/12/30 05:10:33;;;;;;;;;;;;;;;4.02;100.00;100605.69;4920233;29;19927;-78
2023/12/30 05:13:01;;;;;;;;;;;;;;;3.99;100.00;100603.34;4917708;29;19928;-78
2023/12/30 05:18:29;;;;;;;;;;;;;;;3.96;100.00;100602.84;4899862;29;19999;-78
2023/12/30 05:20:55;;;;;;;;;;;;;;;3.97;100.00;100604.50;4896547;29;19959;-77
2023/12/30 05:29:46;;;;;;;;;;;;;;;3.99;100.00;100610.47;4841921;29;19999;-78
2023/12/30 05:44:41;;;;;;;;;;;;;;;4.13;100.00;100635.69;5094910;23;19975;-78
2023/12/30 05:47:35;;;;;;;;;;;;;;;4.12;100.00;100644.69;5071480;23;20033;-78
2023/12/30 05:50:00;;;;;;;;;;;;;;;4.16;100.00;100628.22;4891181;29;19924;-78
2023/12/30 05:52:26;;;;;;;;;;;;;;;4.19;100.00;100641.22;4881252;29;19971;-78
2023/12/30 05:58:19;;;;;;;;;;;;;;;4.27;100.00;100637.75;5112811;23;19934;-78
2023/12/30 06:04:07;;;;;;;;;;;;;;;4.26;100.00;100654.72;4848065;29;20377;-78
2023/12/30 06:06:35;;;;;;;;;;;;;;;4.25;100.00;100645.91;4944474;23;19934;-78
2023/12/30 06:12:25;;;;;;;;;;;;;;;4.23;100.00;100647.06;4918384;29;19926;-77
2023/12/30 06:15:12;;;;;;;;;;;;;;;4.24;100.00;100654.03;5078847;23;20391;-77
2023/12/30 06:18:02;;;;;;;;;;;;;;;4.23;100.00;100663.06;4934491;29;19923;-78
2023/12/30 06:23:45;;;;;;;;;;;;;;;4.15;100.00;100671.00;4923119;29;19933;-78
2023/12/30 06:26:10;;;;;;;;;;;;;;;4.14;100.00;100669.34;4902654;29;19929;-77
2023/12/30 06:28:36;;;;;;;;;;;;;;;4.15;100.00;100676.34;4936167;29;19923;-79
2023/12/30 06:31:01;;;;;;;;;;;;;;;4.22;100.00;100678.19;4935952;29;19930;-78
2023/12/30 06:37:13;;;;;;;;;;;;;;;4.19;100.00;100675.84;4879113;29;19928;-77
2023/12/30 06:39:59;;;;;;;;;;;;;;;;;;;;;
2023/12/30 06:42:29;;;;;;;;;;;;;;;4.26;100.00;100678.72;4867014;29;20296;-77
2023/12/30 06:45:00;;;;;;;;;;;;;;;4.29;100.00;100673.06;4879725;29;20012;-77
2023/12/30 06:47:36;;;;;;;;;;;;;;;4.24;100.00;100681.53;5166433;23;19955;-78
2023/12/30 06:50:01;;;;;;;;;;;;;;;4.33;100.00;100679.75;4937518;29;20018;-77
2023/12/30 06:52:58;;;;;;;;;;;;;;;4.29;100.00;100673.06;4938006;29;20407;-77
2023/12/30 06:58:34;;;;;;;;;;;;;;;4.33;100.00;100678.91;4937703;29;19931;-77
2023/12/30 07:01:32;;;;;;;;;;;;;;;4.30;100.00;100696.06;4935356;29;20047;-77
2023/12/30 07:04:28;;;;;;;;;;;;;;;4.33;100.00;100695.75;4936353;29;19926;-78
2023/12/30 07:07:17;;;;;;;;;;;;;;;4.31;100.00;100695.06;4939607;29;19922;-77
2023/12/30 07:16:07;;;;;;;;;;;;;;;4.45;100.00;100695.44;4876720;29;20047;-78
2023/12/30 07:18:32;;;;;;;;;;;;;;;4.54;100.00;100697.16;4877605;29;19920;-78
2023/12/30 07:21:17;;;;;;;;;;;;;;;4.53;100.00;100704.31;4884347;29;19923;-76
2023/12/30 07:24:03;;;;;;;;;;;;;;;4.58;100.00;100711.84;4909580;29;20010;-76
2023/12/30 07:26:44;;;;;;;;;;;;;;;4.65;100.00;100726.19;4935855;29;19923;-76
2023/12/30 07:29:12;;;;;;;;;;;;;;;4.65;100.00;100728.03;4935747;29;19944;-76
2023/12/30 07:31:43;;;;;;;;;;;;;;;4.55;100.00;100736.16;4935407;29;20430;-75
2023/12/30 07:34:20;;;;;;;;;;;;;;;4.57;100.00;100731.50;4929029;29;20381;-75
2023/12/30 07:36:46;;;;;;;;;;;;;;;4.62;100.00;100739.00;4937186;29;19978;-75
2023/12/30 07:39:33;;;;;;;;;;;;;;;4.51;100.00;100737.47;4919721;29;19966;-75
2023/12/30 07:42:16;;;;;;;;;;;;;;;4.57;100.00;100734.16;4936421;29;19922;-75
2023/12/30 07:44:41;;;;;;;;;;;;;;;4.57;100.00;100728.84;4935654;29;20073;-76
2023/12/30 07:47:07;;;;;;;;;;;;;;;4.54;100.00;100750.47;4941029;23;20397;-76
2023/12/30 07:49:32;;;;;;;;;;;;;;;4.62;100.00;100742.50;4935882;29;19923;-75
2023/12/30 07:52:00;;;;;;;;;;;;;;;4.62;100.00;100739.84;4929127;29;19927;-75
2023/12/30 07:54:25;;;;;;;;;;;;;;;4.68;100.00;100741.88;4925018;29;20380;-82
2023/12/30 07:56:50;;;;;;;;;;;;;;;4.63;100.00;100736.16;5289799;23;19930;-78
2023/12/30 07:59:15;;;;;;;;;;;;;;;4.72;100.00;100747.72;4939719;29;20419;-76
2023/12/30 08:01:41;;;;;;;;;;;;;;;4.78;100.00;100752.41;4949434;28;19911;-76
2023/12/30 08:04:13;;;;;;;;;;;;;;;4.74;100.00;100758.22;4953919;28;19915;-88
2023/12/30 08:06:39;;;;;;;;;;;;;;;4.73;100.00;100769.88;4935244;29;19918;-78
2023/12/30 08:09:04;;;;;;;;;;;;;;;4.71;100.00;100762.03;4940381;29;19969;-77
2023/12/30 08:11:29;;;;;;;;;;;;;;;4.65;100.00;100770.69;4933983;29;19926;-78
2023/12/30 08:13:55;;;;;;;;;;;;;;;4.62;100.00;100777.16;4933525;29;19922;-77
2023/12/30 08:16:20;;;;;;;;;;;;;;;4.70;100.00;100777.22;4932843;29;19927;-77
2023/12/30 08:18:45;;;;;;;;;;;;;;;4.72;100.00;100781.56;4930651;29;20536;-77
2023/12/30 08:21:10;;;;;;;;;;;;;;;4.56;100.00;100772.50;4934430;29;20327;-77
2023/12/30 08:23:42;;;;;;;;;;;;;;;4.62;100.00;100774.50;4928631;23;20459;-76
2023/12/30 08:26:09;;;;;;;;;;;;;;;4.48;100.00;100783.94;4893128;29;19927;-76
2023/12/30 08:29:04;;;;;;;;;;;;;;;4.47;100.00;100797.41;4900396;29;19920;-76
2023/12/30 08:31:45;;;;;;;;;;;;;;;4.43;100.00;100798.72;4912893;29;19915;-76
2023/12/30 08:34:21;;;;;;;;;;;;;;;4.57;100.00;100792.81;4906809;29;19923;-76
2023/12/30 08:36:58;;;;;;;;;;;;;;;4.66;100.00;100788.38;4908147;29;19938;-76
2023/12/30 08:39:24;;;;;;;;;;;;;;;4.68;100.00;100792.53;4908014;29;19930;-76
2023/12/30 08:41:49;;;;;;;;;;;;;;;4.61;100.00;100796.81;4903587;29;19923;-76
2023/12/30 08:44:14;;;;;;;;;;;;;;;4.55;100.00;100792.97;4909779;29;19923;-76
2023/12/30 08:46:40;;;;;;;;;;;;;;;4.62;100.00;100797.66;4905902;29;19965;-76
2023/12/30 08:49:05;;;;;;;;;;;;;;;4.72;100.00;100805.56;4897858;29;19923;-76
2023/12/30 08:51:30;;;;;;;;;;;;;;;4.68;100.00;100800.53;4894505;29;19950;-76
2023/12/30 08:53:56;;;;;;;;;;;;;;;4.85;100.00;100805.94;4894716;29;20014;-75
2023/12/30 08:56:22;;;;;;;;;;;;;;;4.79;100.00;100806.56;4895918;29;19935;-75
2023/12/30 08:58:47;;;;;;;;;;;;;;;4.99;100.00;100813.31;4891640;29;19931;-75
2023/12/30 09:01:18;;;;;;;;;;;;;;;4.96;100.00;100815.50;4909732;29;19927;-75
2023/12/30 09:03:43;;;;;;;;;;;;;;;5.03;100.00;100810.34;4915733;29;19986;-75
2023/12/30 09:06:08;;;;;;;;;;;;;;;5.06;100.00;100818.03;4900863;29;19967;-75
2023/12/30 09:08:35;;;;;;;;;;;;;;;5.14;100.00;100818.03;4900625;29;19928;-74
2023/12/30 09:11:00;;;;;;;;;;;;;;;5.23;100.00;100824.22;4896051;29;19959;-75
2023/12/30 09:13:25;;;;;;;;;;;;;;;5.21;100.00;100816.41;4897235;29;20022;-75
2023/12/30 09:15:51;;;;;;;;;;;;;;;5.20;100.00;100822.72;4895459;29;19927;-75
2023/12/30 09:18:16;;;;;;;;;;;;;;;5.22;100.00;100819.88;4897079;29;20022;-75
2023/12/30 09:20:41;;;;;;;;;;;;;;;5.08;100.00;100829.38;4900082;29;19935;-75
2023/12/30 09:23:07;;;;;;;;;;;;;;;5.25;100.00;100844.44;4897042;29;19924;-75
2023/12/30 09:25:32;;;;;;;;;;;;;;;5.30;100.00;100830.59;4898644;29;19927;-75
2023/12/30 09:27:57;;;;;;;;;;;;;;;5.46;100.00;100838.66;4908347;29;19923;-76
2023/12/30 09:30:23;;;;;;;;;;;;;;;5.56;100.00;100843.84;4911265;29;19908;-76
2023/12/30 09:32:48;;;;;;;;;;;;;;;5.52;100.00;100847.84;4918164;29;19939;-75
2023/12/30 09:35:13;;;;;;;;;;;;;;;5.53;100.00;100840.69;4902011;29;19930;-75
2023/12/30 09:37:39;;;;;;;;;;;;;;;5.55;100.00;100850.19;4901767;29;19975;-75
2023/12/30 09:40:04;;;;;;;;;;;;;;;5.59;100.00;100856.03;4901238;29;19919;-75
2023/12/30 09:42:30;;;;;;;;;;;;;;;5.58;100.00;100860.53;4898718;29;20451;-75
2023/12/30 09:44:56;;;;;;;;;;;;;;;5.59;100.00;100859.53;4915836;29;19923;-75
2023/12/30 09:47:21;;;;;;;;;;;;;;;5.59;100.00;100851.53;4908983;29;19923;-76
2023/12/30 09:49:47;;;;;;;;;;;;;;;5.59;100.00;100853.34;4897948;29;19942;-75
2023/12/30 09:52:12;;;;;;;;;;;;;;;5.60;100.00;100855.88;4898993;29;19986;-76
2023/12/30 09:54:38;;;;;;;;;;;;;;;5.69;100.00;100856.72;4908769;29;19927;-75
2023/12/30 09:57:03;;;;;;;;;;;;;;;5.60;100.00;100855.03;4897820;29;19920;-75
2023/12/30 09:59:30;;;;;;;;;;;;;;;5.49;100.00;100858.84;4897676;29;20363;-75
2023/12/30 10:01:55;;;;;;;;;;;;;;;5.67;100.00;100860.53;4897723;29;19930;-75
2023/12/30 10:04:21;;;;;;;;;;;;;;;5.68;100.00;100854.19;4898291;29;20022;-75
2023/12/30 10:06:47;;;;;;;;;;;;;;;5.71;100.00;100859.22;4899129;29;20018;-76
2023/12/30 10:09:12;;;;;;;;;;;;;;;5.66;100.00;100865.06;4897582;29;19923;-76
2023/12/30 10:11:37;;;;;;;;;;;;;;;5.72;100.00;100858.22;4896303;29;20379;-76
2023/12/30 10:14:03;;;;;;;;;;;;;;;5.69;100.00;100861.22;4896890;29;19924;-77
2023/12/30 10:16:31;;;;;;;;;;;;;;;5.87;100.00;100861.91;4898716;29;19924;-77
2023/12/30 10:18:57;;;;;;;;;;;;;;;5.85;100.00;100858.56;4895667;29;20291;-77
2023/12/30 10:21:22;;;;;;;;;;;;;;;5.85;100.00;100861.22;4893160;29;19935;-76
2023/12/30 10:23:51;;;;;;;;;;;;;;;5.88;100.00;100858.25;4907358;29;19963;-76
2023/12/30 10:26:16;;;;;;;;;;;;;;;5.92;100.00;100872.94;4905439;29;19923;-76
2023/12/30 10:28:41;;;;;;;;;;;;;;;5.96;100.00;100867.28;4894222;29;20423;-76
2023/12/30 10:31:06;;;;;;;;;;;;;;;6.03;100.00;100850.44;4892814;29;19924;-76
2023/12/30 10:33:35;;;;;;;;;;;;;;;6.07;100.00;100845.59;4895520;29;19959;-75
2023/12/30 10:36:01;;;;;;;;;;;;;;;6.12;100.00;100848.59;4902578;29;19930;-77
2023/12/30 10:38:27;;;;;;;;;;;;;;;6.11;100.00;100846.94;4892640;29;19927;-75
2023/12/30 10:40:52;;;;;;;;;;;;;;;6.16;100.00;100852.59;4893823;29;19934;-74
2023/12/30 10:43:26;;;;;;;;;;;;;;;6.10;100.00;100847.94;4899911;29;20087;-75
2023/12/30 10:46:00;;;;;;;;;;;;;;;6.18;100.00;100850.56;4896633;29;19931;-74
2023/12/30 10:48:32;;;;;;;;;;;;;;;6.30;100.00;100842.22;4897355;29;20316;-76
2023/12/30 10:50:58;;;;;;;;;;;;;;;6.26;100.00;100851.59;4967121;23;19935;-76
2023/12/30 10:53:39;;;;;;;;;;;;;;;6.24;100.00;100848.25;4884335;29;19923;-75
2023/12/30 10:56:05;;;;;;;;;;;;;;;6.15;100.00;100856.28;4897224;29;19939;-75
2023/12/30 10:58:32;;;;;;;;;;;;;;;6.13;100.00;100858.28;4912529;29;19970;-75
2023/12/30 11:00:57;;;;;;;;;;;;;;;6.07;100.00;100861.63;4890612;29;20055;-75
2023/12/30 11:03:23;;;;;;;;;;;;;;;6.03;100.00;100869.16;4896864;29;20281;-75
2023/12/30 11:06:03;;;;;;;;;;;;;;;6.08;100.00;100871.31;4898021;29;19924;-75
2023/12/30 11:08:29;;;;;;;;;;;;;;;6.16;100.00;100857.97;4897264;29;19916;-75
2023/12/30 11:11:19;;;;;;;;;;;;;;;6.11;100.00;100851.41;4894658;23;19955;-75
2023/12/30 11:13:53;;;;;;;;;;;;;;;6.16;100.00;100849.94;4889994;29;19928;-75
2023/12/30 11:16:37;;;;;;;;;;;;;;;6.24;100.00;100843.75;4887282;29;19924;-74
2023/12/30 11:19:08;;;;;;;;;;;;;;;6.13;100.00;100844.91;4870318;29;19928;-75
2023/12/30 11:21:59;;;;;;;;;;;;;;;6.07;100.00;100849.09;4877098;29;19955;-78
2023/12/30 11:24:43;;;;;;;;;;;;;;;6.20;100.00;100837.06;4877514;29;19928;-76
2023/12/30 11:27:12;;;;;;;;;;;;;;;6.27;100.00;100839.88;4879569;29;20085;-75
2023/12/30 11:29:43;;;;;;;;;;;;;;;6.27;100.00;100837.22;4882981;29;19951;-75
2023/12/30 11:32:12;;;;;;;;;;;;;;;6.31;100.00;100834.03;4878784;29;20555;-76
2023/12/30 11:34:52;;;;;;;;;;;;;;;6.35;100.00;100830.03;4893437;29;19923;-76
2023/12/30 11:37:29;;;;;;;;;;;;;;;6.37;100.00;100820.00;4883218;29;19935;-76
2023/12/30 11:40:16;;;;;;;;;;;;;;;6.41;100.00;100811.63;4896376;29;19928;-76
2023/12/30 11:42:47;;;;;;;;;;;;;;;6.41;100.00;100796.41;4894216;29;19943;-76
2023/12/30 11:45:12;;;;;;;;;;;;;;;6.32;100.00;100808.16;4892612;29;19928;-76
2023/12/30 11:47:37;;;;;;;;;;;;;;;6.49;100.00;100798.22;4879513;29;20106;-75
2023/12/30 11:50:11;;;;;;;;;;;;;;;6.55;100.00;100804.72;4889006;29;19971;-76
2023/12/30 11:52:52;;;;;;;;;;;;;;;6.55;100.00;100807.41;4876031;29;20326;-75
2023/12/30 11:55:22;;;;;;;;;;;;;;;6.59;100.00;100800.72;4900924;29;19923;-77
2023/12/30 11:57:47;;;;;;;;;;;;;;;6.57;100.00;100792.03;4890899;29;19980;-77
2023/12/30 12:00:13;;;;;;;;;;;;;;;6.72;100.00;100797.50;5121196;23;19923;-77
2023/12/30 12:02:38;;;;;;;;;;;;;;;6.79;100.00;100795.81;4886418;29;19935;-77
2023/12/30 12:05:04;;;;;;;;;;;;;;;6.81;100.00;100783.06;4887322;29;19956;-77
2023/12/30 12:07:30;;;;;;;;;;;;;;;6.81;100.00;100791.09;4911819;29;20014;-77
2023/12/30 12:09:56;;;;;;;;;;;;;;;6.73;100.00;100789.28;4877650;29;19970;-77
2023/12/30 12:12:21;;;;;;;;;;;;;;;6.82;100.00;100795.44;4881143;29;19920;-76
2023/12/30 12:14:50;;;;;;;;;;;;;;;6.91;100.00;100782.84;4879978;29;19931;-77
2023/12/30 12:17:15;;;;;;;;;;;;;;;6.90;100.00;100779.38;4876869;29;19958;-76
2023/12/30 12:19:40;;;;;;;;;;;;;;;6.88;100.00;100786.72;4873733;29;19974;-77
2023/12/30 12:28:40;;;;;;;;;;;;;;;6.85;100.00;100794.28;4901940;29;19933;-77
2023/12/30 12:31:15;;;;;;;;;;;;;;;6.96;100.00;100789.38;4930718;28;20159;-76
2023/12/30 12:33:54;;;;;;;;;;;;;;;7.02;100.00;100790.53;4914139;29;19927;-77
2023/12/30 12:36:37;;;;;;;;;;;;;;;7.00;100.00;100787.19;4902934;29;19932;-76
2023/12/30 12:39:05;;;;;;;;;;;;;;;7.06;100.00;100783.78;4890634;29;20157;-76
2023/12/30 12:41:31;;;;;;;;;;;;;;;6.95;100.00;100781.50;4897527;29;19947;-76
2023/12/30 12:46:45;;;;;;;;;;;;;;;7.09;100.00;100772.72;4969098;23;19935;-78
2023/12/30 12:49:28;;;;;;;;;;;;;;;7.16;100.00;100769.34;4926539;29;19922;-77
2023/12/30 12:52:03;;;;;;;;;;;;;;;7.01;100.00;100770.13;4939617;29;19923;-77
2023/12/30 12:54:29;;;;;;;;;;;;;;;7.20;100.00;100757.28;4935715;29;19945;-77
2023/12/30 12:56:55;;;;;;;;;;;;;;;7.26;100.00;100756.56;4934672;29;20055;-76
2023/12/30 12:59:21;;;;;;;;;;;;;;;7.24;100.00;100753.22;4948920;29;19926;-77
2023/12/30 13:01:52;;;;;;;;;;;;;;;7.27;100.00;100761.75;4954064;29;19927;-75
2023/12/30 13:04:29;;;;;;;;;;;;;;;7.32;100.00;100755.03;4936971;29;20053;-75
2023/12/30 13:06:55;;;;;;;;;;;;;;;7.27;100.00;100751.06;4935799;29;19923;-75
2023/12/30 13:09:40;;;;;;;;;;;;;;;7.33;100.00;100752.19;4934023;29;20275;-75
2023/12/30 13:12:07;;;;;;;;;;;;;;;7.37;100.00;100737.44;4936735;29;19954;-75
2023/12/30 13:14:34;;;;;;;;;;;;;;;7.31;100.00;100743.47;4935763;29;19918;-75
2023/12/30 13:17:00;;;;;;;;;;;;;;;7.38;100.00;100741.78;4927149;29;20298;-75
2023/12/30 13:19:25;;;;;;;;;;;;;;;7.38;100.00;100739.09;4938088;29;19934;-75
2023/12/30 13:21:55;;;;;;;;;;;;;;;7.43;100.00;100735.88;4935537;29;19919;-75
2023/12/30 13:24:23;;;;;;;;;;;;;;;7.46;100.00;100740.88;4936092;29;19922;-76
2023/12/30 13:26:48;;;;;;;;;;;;;;;7.48;100.00;100733.50;4924850;29;19922;-75
2023/12/30 13:29:15;;;;;;;;;;;;;;;7.49;100.00;100740.53;4954594;29;19911;-75
2023/12/30 13:31:43;;;;;;;;;;;;;;;7.47;100.00;100739.00;4957763;29;19917;-75
2023/12/30 13:34:09;;;;;;;;;;;;;;;7.50;100.00;100741.34;4939040;29;19919;-75
2023/12/30 13:36:35;;;;;;;;;;;;;;;7.60;100.00;100731.19;4918106;29;19947;-76
2023/12/30 13:39:06;;;;;;;;;;;;;;;7.49;100.00;100729.81;4931177;29;19943;-75
2023/12/30 13:41:37;;;;;;;;;;;;;;;7.59;100.00;100718.81;4935392;29;20275;-75
2023/12/30 13:44:07;;;;;;;;;;;;;;;7.62;100.00;100723.81;4935261;29;19922;-76
2023/12/30 13:51:26;;;;;;;;;;;;;;;7.59;100.00;100714.31;4935747;29;19929;-77
2023/12/30 13:53:51;;;;;;;;;;;;;;;7.53;100.00;100708.84;4913387;23;20029;-76